createdAt,value
2022-09-04T00:02:31.533Z,13.45
2022-09-04T00:05:20.467Z,13.44
2022-09-04T00:07:52.220Z,13.43
2022-09-04T00:10:38.237Z,13.42
2022-09-04T00:13:12.318Z,13.42
2022-09-04T00:15:47.599Z,13.43
2022-09-04T00:18:34.592Z,13.45
2022-09-04T00:21:05.702Z,13.47
2022-09-04T00:23:46.810Z,13.47
2022-09-04T00:26:36.912Z,13.47
2022-09-04T00:29:14.829Z,13.46
2022-09-04T00:31:52.310Z,13.47
2022-09-04T00:34:39.144Z,13.46
2022-09-04T00:37:13.195Z,13.44
2022-09-04T00:39:53.657Z,13.39
2022-09-04T00:42:43.048Z,13.33
2022-09-04T00:45:32.274Z,13.29
2022-09-04T00:48:20.873Z,13.27
2022-09-04T00:51:26.491Z,13.25
2022-09-04T00:54:45.756Z,13.23
2022-09-04T00:58:04.938Z,13.22
2022-09-04T01:00:33.376Z,13.22
2022-09-04T01:03:19.460Z,13.20
2022-09-04T01:06:04.127Z,13.19
2022-09-04T01:09:04.740Z,13.16
2022-09-04T01:11:49.752Z,13.12
2022-09-04T01:14:48.631Z,13.07
2022-09-04T01:17:23.360Z,13.00
2022-09-04T01:20:20.358Z,12.98
2022-09-04T01:23:00.537Z,12.96
2022-09-04T01:25:50.080Z,12.96
2022-09-04T01:28:30.181Z,12.93
2022-09-04T01:31:19.765Z,12.91
2022-09-04T01:34:06.135Z,12.87
2022-09-04T01:36:49.564Z,12.88
2022-09-04T01:39:22.315Z,12.87
2022-09-04T01:42:29.126Z,12.88
2022-09-04T01:44:57.528Z,12.86
2022-09-04T01:47:51.500Z,12.84
2022-09-04T01:50:27.095Z,12.83
2022-09-04T01:53:13.480Z,12.80
2022-09-04T01:56:09.891Z,12.80
2022-09-04T01:58:40.896Z,12.78
2022-09-04T02:01:56.813Z,12.77
2022-09-04T02:04:40.745Z,12.74
2022-09-04T02:07:31.092Z,12.71
2022-09-04T02:10:02.271Z,12.66
2022-09-04T02:12:53.354Z,12.61
2022-09-04T02:15:41.418Z,12.57
2022-09-04T02:18:36.393Z,12.53
2022-09-04T02:21:47.667Z,12.47
2022-09-04T02:24:31.006Z,12.41
2022-09-04T02:27:13.383Z,12.38
2022-09-04T02:29:52.890Z,12.36
2022-09-04T02:32:29.150Z,12.34
2022-09-04T02:34:59.918Z,12.34
2022-09-04T02:37:59.315Z,12.34
2022-09-04T02:40:36.404Z,12.33
2022-09-04T02:43:07.309Z,12.34
2022-09-04T02:45:45.276Z,12.35
2022-09-04T02:48:35.480Z,12.34
2022-09-04T02:51:18.819Z,12.30
2022-09-04T02:54:16.783Z,12.26
2022-09-04T02:57:24.558Z,12.21
2022-09-04T03:00:13.411Z,12.16
2022-09-04T03:03:05.830Z,12.12
2022-09-04T03:05:42.299Z,12.09
2022-09-04T03:08:24.053Z,12.09
2022-09-04T03:11:05.246Z,12.12
2022-09-04T03:13:47.321Z,12.14
2022-09-04T03:16:28.028Z,12.13
2022-09-04T03:19:19.812Z,12.13
2022-09-04T03:22:14.121Z,12.14
2022-09-04T03:25:13.151Z,12.14
2022-09-04T03:27:41.504Z,12.14
2022-09-04T03:30:12.452Z,12.14
2022-09-04T03:33:12.397Z,12.13
2022-09-04T03:35:59.426Z,12.11
2022-09-04T03:38:41.236Z,12.10
2022-09-04T03:41:59.307Z,12.10
2022-09-04T03:44:52.535Z,12.05
2022-09-04T03:47:46.686Z,12.04
2022-09-04T03:50:49.576Z,12.00
2022-09-04T03:53:56.486Z,11.99
2022-09-04T03:56:42.503Z,11.95
2022-09-04T03:59:25.364Z,11.92
2022-09-04T04:02:10.159Z,11.87
2022-09-04T04:05:09.292Z,11.85
2022-09-04T04:08:04.782Z,11.84
2022-09-04T04:10:33.928Z,11.82
2022-09-04T04:13:39.438Z,11.80
2022-09-04T04:16:41.894Z,11.81
2022-09-04T04:19:28.851Z,11.81
2022-09-04T04:22:09.133Z,11.81
2022-09-04T04:24:48.237Z,11.78
2022-09-04T04:27:25.770Z,11.77
2022-09-04T04:29:53.738Z,11.74
2022-09-04T04:32:42.261Z,11.74
2022-09-04T04:35:25.503Z,11.74
2022-09-04T04:38:08.839Z,11.74
2022-09-04T04:40:39.537Z,11.74
2022-09-04T04:43:26.921Z,11.74
2022-09-04T04:46:20.431Z,11.78
2022-09-04T04:49:17.442Z,11.79
2022-09-04T04:52:33.868Z,11.79
2022-09-04T04:55:31.447Z,11.79
2022-09-04T04:58:24.495Z,11.81
2022-09-04T05:01:12.165Z,11.86
2022-09-04T05:04:09.411Z,11.91
2022-09-04T05:06:57.328Z,11.97
2022-09-04T05:09:50.581Z,12.03
2022-09-04T05:12:48.749Z,12.09
2022-09-04T05:15:33.147Z,12.17
2022-09-04T05:18:45.603Z,12.24
2022-09-04T05:21:39.689Z,12.28
2022-09-04T05:24:32.743Z,12.32
2022-09-04T05:27:10.854Z,12.35
2022-09-04T05:30:08.703Z,12.38
2022-09-04T05:32:50.684Z,12.42
2022-09-04T05:35:35.562Z,12.45
2022-09-04T05:38:12.713Z,12.48
2022-09-04T05:40:46.668Z,12.51
2022-09-04T05:43:42.347Z,12.55
2022-09-04T05:46:52.210Z,12.60
2022-09-04T05:49:20.392Z,12.65
2022-09-04T05:52:22.524Z,12.71
2022-09-04T05:55:06.643Z,12.73
2022-09-04T05:57:34.689Z,12.78
2022-09-04T06:00:08.417Z,12.82
2022-09-04T06:03:04.610Z,12.87
2022-09-04T06:05:39.331Z,12.93
2022-09-04T06:08:40.851Z,12.98
2022-09-04T06:11:39.922Z,13.07
2022-09-04T06:14:23.304Z,13.18
2022-09-04T06:17:06.343Z,13.29
2022-09-04T06:19:53.112Z,13.40
2022-09-04T06:22:26.747Z,13.51
2022-09-04T06:25:14.011Z,13.59
2022-09-04T06:27:55.863Z,13.67
2022-09-04T06:30:30.675Z,13.77
2022-09-04T06:33:03.357Z,13.86
2022-09-04T06:36:07.099Z,13.93
2022-09-04T06:39:03.119Z,14.04
2022-09-04T06:41:49.505Z,14.14
2022-09-04T06:44:32.965Z,14.23
2022-09-04T06:47:27.269Z,14.31
2022-09-04T06:49:55.170Z,14.43
2022-09-04T06:52:30.934Z,14.53
2022-09-04T06:55:06.159Z,14.61
2022-09-04T06:57:52.799Z,14.70
2022-09-04T07:00:20.975Z,14.81
2022-09-04T07:03:00.504Z,14.94
2022-09-04T07:05:38.111Z,15.09
2022-09-04T07:08:30.930Z,15.24
2022-09-04T07:11:22.033Z,15.40
2022-09-04T07:14:16.560Z,15.55
2022-09-04T07:16:49.584Z,15.72
2022-09-04T07:19:48.531Z,15.86
2022-09-04T07:22:43.970Z,16.04
2022-09-04T07:26:03.678Z,16.19
2022-09-04T07:29:29.736Z,16.37
2022-09-04T07:32:08.544Z,16.55
2022-09-04T07:35:05.096Z,16.69
2022-09-04T07:37:59.225Z,16.82
2022-09-04T07:40:53.418Z,16.86
2022-09-04T07:43:36.906Z,16.96
2022-09-04T07:46:22.870Z,17.04
2022-09-04T07:49:13.005Z,17.10
2022-09-04T07:52:03.279Z,17.15
2022-09-04T07:54:49.893Z,17.25
2022-09-04T07:57:32.239Z,17.37
2022-09-04T08:00:15.215Z,17.47
2022-09-04T08:03:17.095Z,17.53
2022-09-04T08:06:14.298Z,17.62
2022-09-04T08:09:07.159Z,17.63
2022-09-04T08:11:41.106Z,17.65
2022-09-04T08:14:48.023Z,17.72
2022-09-04T08:17:24.649Z,17.80
2022-09-04T08:20:23.351Z,17.84
2022-09-04T08:23:00.318Z,17.93
2022-09-04T08:25:44.791Z,17.96
2022-09-04T08:28:33.490Z,18.02
2022-09-04T08:31:20.988Z,18.14
2022-09-04T08:34:03.441Z,18.29
2022-09-04T08:36:38.323Z,18.45
2022-09-04T08:39:18.364Z,18.58
2022-09-04T08:41:52.639Z,18.67
2022-09-04T08:44:35.685Z,18.76
2022-09-04T08:47:28.438Z,18.87
2022-09-04T08:50:08.824Z,18.98
2022-09-04T08:52:39.400Z,19.12
2022-09-04T08:55:20.001Z,19.14
2022-09-04T08:58:22.926Z,19.21
2022-09-04T09:01:18.835Z,19.35
2022-09-04T09:04:20.778Z,19.39
2022-09-04T09:07:14.350Z,19.18
2022-09-04T09:10:00.749Z,19.18
2022-09-04T09:12:44.426Z,19.23
2022-09-04T09:15:31.611Z,19.29
2022-09-04T09:18:18.131Z,19.39
2022-09-04T09:21:26.273Z,19.49
2022-09-04T09:24:28.292Z,19.58
2022-09-04T09:27:12.078Z,19.71
2022-09-04T09:30:08.951Z,19.81
2022-09-04T09:33:22.465Z,19.95
2022-09-04T09:35:59.440Z,20.05
2022-09-04T09:38:52.817Z,20.16
2022-09-04T09:41:51.845Z,20.31
2022-09-04T09:44:26.973Z,20.49
2022-09-04T09:47:52.658Z,20.65
2022-09-04T09:50:40.218Z,20.84
2022-09-04T09:53:47.001Z,20.95
2022-09-04T09:56:36.711Z,21.06
2022-09-04T09:59:11.322Z,21.23
2022-09-04T10:01:39.312Z,21.37
2022-09-04T10:04:44.770Z,21.38
2022-09-04T10:07:14.841Z,21.37
2022-09-04T10:09:58.022Z,21.45
2022-09-04T10:13:04.004Z,21.59
2022-09-04T10:15:52.947Z,21.75
2022-09-04T10:19:10.472Z,21.92
2022-09-04T10:22:20.201Z,22.17
2022-09-04T10:25:06.680Z,22.48
2022-09-04T10:28:01.463Z,22.71
2022-09-04T10:30:43.026Z,22.96
2022-09-04T10:33:32.425Z,23.21
2022-09-04T10:36:34.375Z,23.42
2022-09-04T10:39:48.561Z,23.43
2022-09-04T10:42:55.593Z,23.32
2022-09-04T10:45:39.162Z,23.10
2022-09-04T10:48:16.292Z,22.90
2022-09-04T10:51:02.462Z,22.73
2022-09-04T10:53:51.357Z,22.70
2022-09-04T10:56:26.409Z,22.79
2022-09-04T10:59:10.408Z,22.95
2022-09-04T11:02:12.356Z,23.05
2022-09-04T11:05:07.891Z,23.09
2022-09-04T11:08:07.160Z,22.94
2022-09-04T11:11:18.443Z,22.77
2022-09-04T11:14:18.761Z,22.55
2022-09-04T11:16:52.514Z,22.47
2022-09-04T11:20:16.178Z,22.43
2022-09-04T11:23:13.214Z,22.54
2022-09-04T11:26:06.252Z,22.61
2022-09-04T11:28:52.576Z,22.71
2022-09-04T11:31:26.535Z,22.84
2022-09-04T11:34:33.267Z,22.92
2022-09-04T11:37:33.824Z,22.98
2022-09-04T11:40:20.237Z,23.08
2022-09-04T11:43:08.956Z,23.03
2022-09-04T11:45:43.179Z,22.94
2022-09-04T11:48:47.667Z,22.92
2022-09-04T11:51:43.213Z,22.88
2022-09-04T11:54:41.291Z,22.80
2022-09-04T11:57:15.501Z,22.69
2022-09-04T11:59:59.219Z,22.58
2022-09-04T12:02:29.793Z,22.46
2022-09-04T12:05:04.190Z,22.30
2022-09-04T12:07:56.951Z,22.22
2022-09-04T12:10:46.376Z,22.20
2022-09-04T12:13:44.076Z,22.22
2022-09-04T12:16:47.695Z,22.21
2022-09-04T12:19:53.180Z,22.23
2022-09-04T12:22:36.748Z,22.23
2022-09-04T12:25:10.776Z,22.28
2022-09-04T12:28:07.092Z,22.39
2022-09-04T12:31:12.565Z,22.53
2022-09-04T12:33:43.718Z,22.70
2022-09-04T12:36:42.573Z,22.81
2022-09-04T12:39:24.495Z,22.96
2022-09-04T12:42:05.007Z,23.09
2022-09-04T12:44:42.081Z,23.19
2022-09-04T12:47:28.794Z,23.24
2022-09-04T12:50:28.392Z,23.29
2022-09-04T12:53:26.260Z,23.26
2022-09-04T12:56:18.619Z,23.24
2022-09-04T12:59:02.172Z,23.15
2022-09-04T13:01:59.412Z,23.00
2022-09-04T13:04:56.039Z,22.91
2022-09-04T13:07:52.093Z,22.88
2022-09-04T13:10:32.950Z,22.90
2022-09-04T13:13:16.308Z,22.95
2022-09-04T13:16:04.174Z,23.06
2022-09-04T13:18:51.420Z,23.12
2022-09-04T13:21:42.621Z,23.16
2022-09-04T13:24:25.822Z,23.11
2022-09-04T13:27:21.576Z,23.03
2022-09-04T13:30:03.017Z,23.00
2022-09-04T13:33:05.917Z,22.98
2022-09-04T13:35:43.075Z,23.01
2022-09-04T13:38:17.181Z,23.04
2022-09-04T13:41:15.866Z,23.08
2022-09-04T13:44:13.496Z,23.07
2022-09-04T13:46:48.667Z,23.02
2022-09-04T13:49:24.643Z,22.95
2022-09-04T13:52:03.856Z,22.89
2022-09-04T13:54:42.665Z,22.82
2022-09-04T13:57:17.950Z,22.79
2022-09-04T13:59:50.119Z,22.79
2022-09-04T14:02:25.595Z,22.80
2022-09-04T14:04:57.965Z,22.82
2022-09-04T14:07:36.308Z,22.82
2022-09-04T14:10:22.055Z,22.80
2022-09-04T14:13:12.895Z,22.75
2022-09-04T14:16:00.024Z,22.68
2022-09-04T14:18:46.846Z,22.59
2022-09-04T14:21:20.699Z,22.53
2022-09-04T14:24:14.027Z,22.52
2022-09-04T14:26:48.163Z,22.50
2022-09-04T14:29:36.363Z,22.49
2022-09-04T14:32:32.460Z,22.42
2022-09-04T14:35:19.096Z,22.36
2022-09-04T14:38:02.499Z,22.30
2022-09-04T14:40:34.482Z,22.23
2022-09-04T14:43:25.363Z,22.15
2022-09-04T14:46:10.349Z,22.09
2022-09-04T14:48:44.699Z,22.06
2022-09-04T14:51:41.348Z,22.01
2022-09-04T14:54:19.433Z,21.95
2022-09-04T14:56:51.055Z,21.86
2022-09-04T14:59:43.659Z,21.78
2022-09-04T15:02:11.585Z,21.72
2022-09-04T15:04:49.281Z,21.67
2022-09-04T15:07:24.954Z,21.63
2022-09-04T15:09:54.861Z,21.60
2022-09-04T15:12:32.773Z,21.60
2022-09-04T15:15:07.612Z,21.63
2022-09-04T15:17:40.329Z,21.61
2022-09-04T15:20:17.104Z,21.58
2022-09-04T15:22:57.431Z,21.59
2022-09-04T15:25:47.990Z,21.59
2022-09-04T15:28:42.729Z,21.55
2022-09-04T15:31:18.652Z,21.52
2022-09-04T15:33:48.709Z,21.48
2022-09-04T15:36:22.763Z,21.42
2022-09-04T15:39:01.244Z,21.35
2022-09-04T15:41:32.419Z,21.28
2022-09-04T15:44:34.432Z,21.23
2022-09-04T15:47:17.204Z,21.11
2022-09-04T15:49:53.897Z,21.01
2022-09-04T15:52:36.859Z,20.96
2022-09-04T15:55:08.670Z,20.89
2022-09-04T15:57:40.224Z,20.83
2022-09-04T16:00:11.696Z,20.74
2022-09-04T16:02:57.049Z,20.66
2022-09-04T16:05:46.164Z,20.57
2022-09-04T16:08:41.242Z,20.46
2022-09-04T16:11:19.166Z,20.34
2022-09-04T16:13:49.906Z,20.25
2022-09-04T16:16:24.331Z,20.18
2022-09-04T16:19:24.070Z,20.11
2022-09-04T16:22:20.924Z,20.02
2022-09-04T16:24:56.116Z,19.92
2022-09-04T16:27:28.829Z,19.81
2022-09-04T16:30:02.990Z,19.71
2022-09-04T16:32:35.407Z,19.62
2022-09-04T16:35:19.552Z,19.53
2022-09-04T16:37:59.378Z,19.45
2022-09-04T16:40:33.732Z,19.38
2022-09-04T16:43:45.061Z,19.32
2022-09-04T16:46:20.466Z,19.27
2022-09-04T16:48:57.998Z,19.22
2022-09-04T16:51:42.141Z,19.19
2022-09-04T16:54:20.097Z,19.15
2022-09-04T16:57:12.923Z,19.11
2022-09-04T16:59:55.504Z,19.07
2022-09-04T17:02:51.344Z,19.03
2022-09-04T17:06:06.409Z,18.98
2022-09-04T17:08:38.357Z,18.95
2022-09-04T17:11:27.853Z,18.92
2022-09-04T17:14:08.596Z,18.89
2022-09-04T17:17:12.508Z,18.85
2022-09-04T17:20:09.080Z,18.83
2022-09-04T17:28:57.033Z,18.80
2022-09-04T17:29:02.239Z,18.82
2022-09-04T17:29:10.497Z,18.77
2022-09-04T17:31:51.311Z,18.73
2022-09-04T17:40:33.266Z,18.67
2022-09-04T17:40:48.714Z,18.63
2022-09-04T17:40:53.609Z,18.56
2022-09-04T17:43:40.105Z,18.50
2022-09-04T17:46:27.750Z,18.44
2022-09-04T17:48:56.533Z,18.39
2022-09-04T17:51:33.815Z,18.33
2022-09-04T17:54:10.505Z,18.26
2022-09-04T17:56:55.253Z,18.21
2022-09-04T17:59:45.545Z,18.16
2022-09-04T18:02:33.936Z,18.12
2022-09-04T18:05:23.640Z,18.07
2022-09-04T18:08:08.465Z,18.02
2022-09-04T18:10:54.576Z,17.96
2022-09-04T18:14:02.272Z,17.90
2022-09-04T18:16:36.792Z,17.86
2022-09-04T18:19:28.085Z,17.84
2022-09-04T18:22:25.570Z,17.79
2022-09-04T18:24:57.710Z,17.72
2022-09-04T18:28:12.453Z,17.66
2022-09-04T18:37:13.062Z,17.64
2022-09-04T18:37:18.718Z,17.62
2022-09-04T18:37:46.608Z,17.59
2022-09-04T18:40:36.083Z,17.54
2022-09-04T18:50:21.096Z,17.49
2022-09-04T18:50:45.747Z,17.47
2022-09-04T18:50:53.512Z,17.45
2022-09-04T18:52:14.140Z,17.42
2022-09-04T18:54:49.860Z,17.39
2022-09-04T18:57:34.748Z,17.37
2022-09-04T19:00:10.573Z,17.35
2022-09-04T19:02:52.981Z,17.32
2022-09-04T19:05:44.424Z,17.28
2022-09-04T19:08:28.534Z,17.25
2022-09-04T19:11:17.458Z,17.24
2022-09-04T19:14:00.751Z,17.24
2022-09-04T19:16:53.238Z,17.25
2022-09-04T19:19:31.870Z,17.25
2022-09-04T19:22:25.123Z,17.24
2022-09-04T19:25:27.676Z,17.23
2022-09-04T19:28:16.616Z,17.20
2022-09-04T19:31:11.844Z,17.15
2022-09-04T19:33:45.139Z,17.09
2022-09-04T19:36:32.421Z,17.05
2022-09-04T19:45:56.596Z,17.00
2022-09-04T19:46:15.506Z,16.85
2022-09-04T19:46:16.655Z,16.91
2022-09-04T19:49:19.366Z,16.81
2022-09-04T19:53:32.176Z,16.76
2022-09-04T19:54:37.536Z,16.71
2022-09-04T19:57:32.942Z,16.66
2022-09-04T20:00:30.932Z,16.63
2022-09-04T20:03:07.820Z,16.61
2022-09-04T20:05:40.103Z,16.59
2022-09-04T20:08:14.288Z,16.57
2022-09-04T20:10:49.986Z,16.54
2022-09-04T20:13:35.483Z,16.51
2022-09-04T20:16:22.683Z,16.49
2022-09-04T20:18:53.698Z,16.46
2022-09-04T20:21:27.698Z,16.43
2022-09-04T20:24:12.057Z,16.39
2022-09-04T20:26:56.683Z,16.33
2022-09-04T20:29:31.961Z,16.30
2022-09-04T20:32:09.160Z,16.28
2022-09-04T20:34:40.296Z,16.26
2022-09-04T20:37:22.699Z,16.26
2022-09-04T20:39:59.533Z,16.25
2022-09-04T20:42:54.133Z,16.23
2022-09-04T20:49:06.772Z,16.21
2022-09-04T20:52:45.581Z,16.14
2022-09-04T20:52:56.435Z,16.07
2022-09-04T20:54:52.024Z,16.00
2022-09-04T21:03:05.648Z,15.92
2022-09-04T21:03:22.137Z,15.85
2022-09-04T21:03:35.287Z,15.77
2022-09-04T21:06:25.674Z,15.73
2022-09-04T21:09:22.755Z,15.71
2022-09-04T21:12:14.050Z,15.69
2022-09-04T21:14:52.124Z,15.68
2022-09-04T21:17:37.421Z,15.68
2022-09-04T21:20:41.650Z,15.68
2022-09-04T21:23:41.194Z,15.71
2022-09-04T21:26:36.433Z,15.73
2022-09-04T21:29:21.928Z,15.74
2022-09-04T21:32:14.906Z,15.76
2022-09-04T21:35:25.239Z,15.79
2022-09-04T21:37:59.957Z,15.82
2022-09-04T21:40:57.229Z,15.84
2022-09-04T21:43:40.457Z,15.88
2022-09-04T21:46:23.449Z,15.89
2022-09-04T21:49:36.587Z,15.91
2022-09-04T21:52:42.590Z,15.92
2022-09-04T21:58:06.704Z,15.93
2022-09-04T22:02:30.950Z,15.92
2022-09-04T22:02:38.111Z,15.93
2022-09-04T22:04:35.488Z,15.94
2022-09-04T22:10:06.655Z,15.95
2022-09-04T22:13:27.468Z,15.93
2022-09-04T22:13:50.810Z,15.91
2022-09-04T22:16:37.347Z,15.90
2022-09-04T22:19:28.213Z,15.90
2022-09-04T22:22:37.976Z,15.91
2022-09-04T22:25:06.582Z,15.89
2022-09-04T22:28:08.621Z,15.88
2022-09-04T22:30:46.638Z,15.89
2022-09-04T22:33:50.757Z,15.89
2022-09-04T22:36:42.254Z,15.88
2022-09-04T22:39:45.284Z,15.87
2022-09-04T22:42:25.374Z,15.87
2022-09-04T22:45:16.084Z,15.86
2022-09-04T22:47:49.730Z,15.88
2022-09-04T22:50:49.501Z,15.88
2022-09-04T22:53:49.550Z,15.89
2022-09-04T22:56:34.175Z,15.90
2022-09-04T22:59:37.756Z,15.89
2022-09-04T23:02:39.925Z,15.88
2022-09-04T23:05:36.644Z,15.87
2022-09-04T23:13:52.404Z,15.82
2022-09-04T23:13:53.767Z,15.85
2022-09-04T23:14:49.101Z,15.80
2022-09-04T23:17:36.283Z,15.79
2022-09-04T23:26:32.847Z,15.79
2022-09-04T23:26:46.613Z,15.77
2022-09-04T23:27:00.408Z,15.75
2022-09-04T23:29:44.495Z,15.74
2022-09-04T23:32:28.283Z,15.74
2022-09-04T23:35:41.604Z,15.74
2022-09-04T23:39:01.092Z,15.73
2022-09-04T23:42:24.716Z,15.73
2022-09-04T23:45:29.967Z,15.72
2022-09-04T23:48:37.050Z,15.72
2022-09-04T23:51:47.265Z,15.70
2022-09-04T23:54:58.038Z,15.69
2022-09-04T23:58:21.005Z,15.68
